sensor_id;sensor_type;location;lat;lon;timestamp;pressure;altitude;pressure_sealevel;temperature;humidity
20119;BME280;10220;42.716;23.306;2024-02-04T00:08:16;95673.84;;;7.50;100.00
20119;BME280;10220;42.716;23.306;2024-02-04T00:10:42;95665.34;;;7.41;100.00
20119;BME280;10220;42.716;23.306;2024-02-04T00:15:58;95697.88;;;7.64;100.00
20119;BME280;10220;42.716;23.306;2024-02-04T00:18:27;95640.09;;;7.37;100.00
20119;BME280;10220;42.716;23.306;2024-02-04T00:20:55;95658.44;;;7.42;100.00
20119;BME280;10220;42.716;23.306;2024-02-04T00:23:23;95679.53;;;7.67;100.00
20119;BME280;10220;42.716;23.306;2024-02-04T00:25:58;95676.94;;;7.67;100.00
20119;BME280;10220;42.716;23.306;2024-02-04T00:28:24;95681.63;;;7.64;100.00
20119;BME280;10220;42.716;23.306;2024-02-04T00:30:51;95692.47;;;7.82;100.00
20119;BME280;10220;42.716;23.306;2024-02-04T00:33:20;95689.22;;;7.80;100.00
20119;BME280;10220;42.716;23.306;2024-02-04T00:35:46;95664.91;;;7.60;100.00
20119;BME280;10220;42.716;23.306;2024-02-04T00:38:11;95705.78;;;7.85;100.00
20119;BME280;10220;42.716;23.306;2024-02-04T00:40:37;95686.84;;;7.78;100.00
20119;BME280;10220;42.716;23.306;2024-02-04T00:43:03;95693.19;;;7.90;100.00
20119;BME280;10220;42.716;23.306;2024-02-04T00:45:31;95650.94;;;7.55;100.00
20119;BME280;10220;42.716;23.306;2024-02-04T00:47:57;95697.09;;;7.86;100.00
20119;BME280;10220;42.716;23.306;2024-02-04T00:50:22;95701.38;;;7.94;100.00
20119;BME280;10220;42.716;23.306;2024-02-04T00:52:48;95687.94;;;7.98;100.00
20119;BME280;10220;42.716;23.306;2024-02-04T00:55:13;95706.06;;;7.90;100.00
20119;BME280;10220;42.716;23.306;2024-02-04T00:57:39;95707.16;;;7.96;100.00
20119;BME280;10220;42.716;23.306;2024-02-04T01:00:05;95702.72;;;7.90;100.00
20119;BME280;10220;42.716;23.306;2024-02-04T01:02:30;95663.22;;;7.67;100.00
20119;BME280;10220;42.716;23.306;2024-02-04T01:04:56;95639.47;;;7.57;100.00
20119;BME280;10220;42.716;23.306;2024-02-04T01:07:24;95657.63;;;7.63;100.00
20119;BME280;10220;42.716;23.306;2024-02-04T01:09:53;95640.34;;;7.50;100.00
20119;BME280;10220;42.716;23.306;2024-02-04T01:12:18;95647.13;;;7.43;100.00
20119;BME280;10220;42.716;23.306;2024-02-04T01:14:52;95651.97;;;7.46;100.00
20119;BME280;10220;42.716;23.306;2024-02-04T01:17:20;95664.38;;;7.42;100.00
20119;BME280;10220;42.716;23.306;2024-02-04T01:19:48;95657.44;;;7.43;100.00
20119;BME280;10220;42.716;23.306;2024-02-04T01:22:13;95687.63;;;7.79;100.00
20119;BME280;10220;42.716;23.306;2024-02-04T01:24:39;95688.84;;;7.68;100.00
20119;BME280;10220;42.716;23.306;2024-02-04T01:27:04;95679.16;;;7.70;100.00
20119;BME280;10220;42.716;23.306;2024-02-04T01:29:30;95689.59;;;7.77;100.00
20119;BME280;10220;42.716;23.306;2024-02-04T01:31:55;95661.63;;;7.66;100.00
20119;BME280;10220;42.716;23.306;2024-02-04T01:34:21;95673.03;;;7.71;100.00
20119;BME280;10220;42.716;23.306;2024-02-04T01:36:46;95672.09;;;7.64;100.00
20119;BME280;10220;42.716;23.306;2024-02-04T01:39:12;95674.47;;;7.74;100.00
20119;BME280;10220;42.716;23.306;2024-02-04T01:41:37;95677.50;;;7.77;100.00
20119;BME280;10220;42.716;23.306;2024-02-04T01:44:03;95668.31;;;7.75;100.00
20119;BME280;10220;42.716;23.306;2024-02-04T01:46:29;95661.06;;;7.78;100.00
20119;BME280;10220;42.716;23.306;2024-02-04T01:48:55;95653.50;;;7.77;100.00
20119;BME280;10220;42.716;23.306;2024-02-04T01:51:21;95674.84;;;7.85;100.00
20119;BME280;10220;42.716;23.306;2024-02-04T01:53:47;95658.47;;;7.78;100.00
20119;BME280;10220;42.716;23.306;2024-02-04T01:56:14;95673.72;;;8.02;100.00
20119;BME280;10220;42.716;23.306;2024-02-04T01:58:40;95656.56;;;7.95;100.00
20119;BME280;10220;42.716;23.306;2024-02-04T02:01:07;95630.03;;;7.86;100.00
20119;BME280;10220;42.716;23.306;2024-02-04T02:03:34;95664.66;;;8.06;100.00
20119;BME280;10220;42.716;23.306;2024-02-04T02:06:01;95622.94;;;7.88;100.00
20119;BME280;10220;42.716;23.306;2024-02-04T02:08:26;95649.81;;;8.08;100.00
20119;BME280;10220;42.716;23.306;2024-02-04T02:10:57;95660.94;;;8.09;100.00
20119;BME280;10220;42.716;23.306;2024-02-04T02:13:30;95656.22;;;8.12;100.00
20119;BME280;10220;42.716;23.306;2024-02-04T02:16:18;95647.72;;;8.12;100.00
20119;BME280;10220;42.716;23.306;2024-02-04T02:18:52;95661.25;;;8.14;100.00
20119;BME280;10220;42.716;23.306;2024-02-04T02:21:44;95648.44;;;8.20;100.00
20119;BME280;10220;42.716;23.306;2024-02-04T02:26:49;95636.56;;;8.11;100.00
20119;BME280;10220;42.716;23.306;2024-02-04T02:29:15;95648.16;;;8.15;100.00
20119;BME280;10220;42.716;23.306;2024-02-04T02:31:42;95650.06;;;8.35;100.00
20119;BME280;10220;42.716;23.306;2024-02-04T02:34:09;95647.13;;;8.24;100.00
20119;BME280;10220;42.716;23.306;2024-02-04T02:36:43;95623.75;;;8.03;100.00
20119;BME280;10220;42.716;23.306;2024-02-04T02:39:18;95641.34;;;8.22;100.00
20119;BME280;10220;42.716;23.306;2024-02-04T02:41:49;95651.03;;;8.34;100.00
20119;BME280;10220;42.716;23.306;2024-02-04T02:44:16;95620.28;;;8.11;100.00
20119;BME280;10220;42.716;23.306;2024-02-04T02:46:42;95602.41;;;8.09;100.00
20119;BME280;10220;42.716;23.306;2024-02-04T02:49:09;95614.16;;;8.12;100.00
20119;BME280;10220;42.716;23.306;2024-02-04T02:51:47;95585.44;;;8.00;100.00
20119;BME280;10220;42.716;23.306;2024-02-04T02:54:16;95610.78;;;8.11;100.00
20119;BME280;10220;42.716;23.306;2024-02-04T02:56:44;95610.28;;;8.16;100.00
20119;BME280;10220;42.716;23.306;2024-02-04T02:59:09;95633.16;;;8.33;100.00
20119;BME280;10220;42.716;23.306;2024-02-04T03:01:39;95629.69;;;8.26;100.00
20119;BME280;10220;42.716;23.306;2024-02-04T03:04:04;95629.22;;;8.22;100.00
20119;BME280;10220;42.716;23.306;2024-02-04T03:06:30;95632.97;;;8.20;100.00
20119;BME280;10220;42.716;23.306;2024-02-04T03:08:55;95598.59;;;8.05;100.00
20119;BME280;10220;42.716;23.306;2024-02-04T03:11:21;95633.69;;;8.28;100.00
20119;BME280;10220;42.716;23.306;2024-02-04T03:13:46;95634.75;;;8.34;100.00
20119;BME280;10220;42.716;23.306;2024-02-04T03:16:12;95612.41;;;8.26;100.00
20119;BME280;10220;42.716;23.306;2024-02-04T03:18:39;95602.19;;;8.18;100.00
20119;BME280;10220;42.716;23.306;2024-02-04T03:21:12;95585.84;;;8.04;100.00
20119;BME280;10220;42.716;23.306;2024-02-04T03:23:37;95592.44;;;8.06;100.00
20119;BME280;10220;42.716;23.306;2024-02-04T03:26:03;95622.91;;;8.39;100.00
20119;BME280;10220;42.716;23.306;2024-02-04T03:28:28;95626.28;;;8.40;100.00
20119;BME280;10220;42.716;23.306;2024-02-04T03:30:54;95620.06;;;8.49;100.00
20119;BME280;10220;42.716;23.306;2024-02-04T03:33:19;95619.34;;;8.55;100.00
20119;BME280;10220;42.716;23.306;2024-02-04T03:35:45;95595.50;;;8.53;100.00
20119;BME280;10220;42.716;23.306;2024-02-04T03:38:10;95581.88;;;8.44;100.00
20119;BME280;10220;42.716;23.306;2024-02-04T03:40:36;95594.03;;;8.65;100.00
20119;BME280;10220;42.716;23.306;2024-02-04T03:43:01;95601.75;;;8.79;100.00
20119;BME280;10220;42.716;23.306;2024-02-04T03:45:27;95577.06;;;8.70;100.00
20119;BME280;10220;42.716;23.306;2024-02-04T03:47:52;95593.34;;;8.71;100.00
20119;BME280;10220;42.716;23.306;2024-02-04T03:50:24;95548.06;;;8.39;100.00
20119;BME280;10220;42.716;23.306;2024-02-04T03:52:53;95569.66;;;8.53;100.00
20119;BME280;10220;42.716;23.306;2024-02-04T03:55:26;95528.94;;;8.34;100.00
20119;BME280;10220;42.716;23.306;2024-02-04T03:57:54;95609.63;;;8.71;100.00
20119;BME280;10220;42.716;23.306;2024-02-04T04:00:22;95582.22;;;8.41;100.00
20119;BME280;10220;42.716;23.306;2024-02-04T04:02:47;95612.84;;;8.59;100.00
20119;BME280;10220;42.716;23.306;2024-02-04T04:05:13;95612.84;;;8.59;100.00
20119;BME280;10220;42.716;23.306;2024-02-04T04:07:39;95593.00;;;8.45;100.00
20119;BME280;10220;42.716;23.306;2024-02-04T04:10:08;95563.09;;;8.36;100.00
20119;BME280;10220;42.716;23.306;2024-02-04T04:12:52;95588.47;;;8.47;100.00
20119;BME280;10220;42.716;23.306;2024-02-04T04:15:20;95565.19;;;8.26;100.00
20119;BME280;10220;42.716;23.306;2024-02-04T04:17:46;95608.41;;;8.38;100.00
20119;BME280;10220;42.716;23.306;2024-02-04T04:20:11;95609.72;;;8.49;100.00
20119;BME280;10220;42.716;23.306;2024-02-04T04:22:40;95604.19;;;8.52;100.00
20119;BME280;10220;42.716;23.306;2024-02-04T04:25:06;95565.50;;;8.37;100.00
20119;BME280;10220;42.716;23.306;2024-02-04T04:27:32;95605.72;;;8.61;100.00
20119;BME280;10220;42.716;23.306;2024-02-04T04:29:57;95590.88;;;8.48;100.00
20119;BME280;10220;42.716;23.306;2024-02-04T04:32:22;95623.44;;;8.78;100.00
20119;BME280;10220;42.716;23.306;2024-02-04T04:34:48;95618.06;;;8.79;100.00
20119;BME280;10220;42.716;23.306;2024-02-04T04:37:13;95620.03;;;8.77;100.00
20119;BME280;10220;42.716;23.306;2024-02-04T04:39:39;95613.44;;;8.75;100.00
20119;BME280;10220;42.716;23.306;2024-02-04T04:42:04;95618.25;;;8.78;100.00
20119;BME280;10220;42.716;23.306;2024-02-04T04:44:30;95620.09;;;8.84;100.00
20119;BME280;10220;42.716;23.306;2024-02-04T04:46:55;95613.59;;;8.88;100.00
20119;BME280;10220;42.716;23.306;2024-02-04T04:49:21;95595.53;;;8.74;100.00
20119;BME280;10220;42.716;23.306;2024-02-04T04:51:46;95618.03;;;8.94;100.00
20119;BME280;10220;42.716;23.306;2024-02-04T04:54:12;95622.56;;;8.92;100.00
20119;BME280;10220;42.716;23.306;2024-02-04T04:56:38;95583.38;;;8.68;100.00
20119;BME280;10220;42.716;23.306;2024-02-04T04:59:05;95584.13;;;8.82;100.00
20119;BME280;10220;42.716;23.306;2024-02-04T05:01:31;95623.13;;;8.87;100.00
20119;BME280;10220;42.716;23.306;2024-02-04T05:03:56;95617.34;;;8.85;100.00
20119;BME280;10220;42.716;23.306;2024-02-04T05:06:22;95555.00;;;8.53;100.00
20119;BME280;10220;42.716;23.306;2024-02-04T05:08:47;95562.91;;;8.52;100.00
20119;BME280;10220;42.716;23.306;2024-02-04T05:11:13;95596.72;;;8.57;100.00
20119;BME280;10220;42.716;23.306;2024-02-04T05:13:39;95593.34;;;8.56;100.00
20119;BME280;10220;42.716;23.306;2024-02-04T05:16:05;95587.66;;;8.46;100.00
20119;BME280;10220;42.716;23.306;2024-02-04T05:18:30;95613.81;;;8.58;100.00
20119;BME280;10220;42.716;23.306;2024-02-04T05:20:56;95620.69;;;8.65;100.00
20119;BME280;10220;42.716;23.306;2024-02-04T05:23:21;95617.47;;;8.63;100.00
20119;BME280;10220;42.716;23.306;2024-02-04T05:25:47;95602.41;;;8.67;100.00
20119;BME280;10220;42.716;23.306;2024-02-04T05:28:12;95617.13;;;8.66;100.00
20119;BME280;10220;42.716;23.306;2024-02-04T05:30:38;95611.69;;;8.61;100.00
20119;BME280;10220;42.716;23.306;2024-02-04T05:36:39;95562.75;;;8.24;100.00
20119;BME280;10220;42.716;23.306;2024-02-04T05:39:14;95560.16;;;8.24;100.00
20119;BME280;10220;42.716;23.306;2024-02-04T05:41:40;95606.19;;;8.35;100.00
20119;BME280;10220;42.716;23.306;2024-02-04T05:44:22;95598.06;;;8.38;100.00
20119;BME280;10220;42.716;23.306;2024-02-04T05:47:05;95613.84;;;8.29;100.00
20119;BME280;10220;42.716;23.306;2024-02-04T05:49:54;95653.31;;;8.15;100.00
20119;BME280;10220;42.716;23.306;2024-02-04T05:52:19;95610.84;;;8.03;100.00
20119;BME280;10220;42.716;23.306;2024-02-04T05:54:45;95618.13;;;7.85;100.00
20119;BME280;10220;42.716;23.306;2024-02-04T05:57:11;95568.03;;;7.65;100.00
20119;BME280;10220;42.716;23.306;2024-02-04T05:59:37;95610.19;;;7.87;100.00
20119;BME280;10220;42.716;23.306;2024-02-04T06:02:04;95562.16;;;7.57;100.00
20119;BME280;10220;42.716;23.306;2024-02-04T06:04:47;95583.22;;;7.60;100.00
20119;BME280;10220;42.716;23.306;2024-02-04T06:07:13;95592.44;;;7.55;100.00
20119;BME280;10220;42.716;23.306;2024-02-04T06:09:59;95579.22;;;7.58;100.00
20119;BME280;10220;42.716;23.306;2024-02-04T06:12:25;95649.81;;;7.94;100.00
20119;BME280;10220;42.716;23.306;2024-02-04T06:14:56;95584.47;;;7.64;100.00
20119;BME280;10220;42.716;23.306;2024-02-04T06:17:22;95612.16;;;7.85;100.00
20119;BME280;10220;42.716;23.306;2024-02-04T06:19:47;95637.72;;;8.09;100.00
20119;BME280;10220;42.716;23.306;2024-02-04T06:22:14;95609.03;;;7.89;100.00
20119;BME280;10220;42.716;23.306;2024-02-04T06:24:40;95649.81;;;8.08;100.00
20119;BME280;10220;42.716;23.306;2024-02-04T06:27:07;95661.84;;;8.01;100.00
20119;BME280;10220;42.716;23.306;2024-02-04T06:29:33;95635.28;;;7.78;100.00
20119;BME280;10220;42.716;23.306;2024-02-04T06:31:59;95672.25;;;8.08;100.00
20119;BME280;10220;42.716;23.306;2024-02-04T06:34:25;95668.47;;;8.18;100.00
20119;BME280;10220;42.716;23.306;2024-02-04T06:36:53;95667.66;;;8.18;100.00
20119;BME280;10220;42.716;23.306;2024-02-04T06:39:19;95672.94;;;8.38;100.00
20119;BME280;10220;42.716;23.306;2024-02-04T06:41:44;95632.09;;;8.27;100.00
20119;BME280;10220;42.716;23.306;2024-02-04T06:44:13;95655.31;;;8.42;100.00
20119;BME280;10220;42.716;23.306;2024-02-04T06:46:41;95660.28;;;8.58;100.00
20119;BME280;10220;42.716;23.306;2024-02-04T06:49:07;95661.09;;;8.58;100.00
20119;BME280;10220;42.716;23.306;2024-02-04T06:51:39;95612.66;;;8.60;100.00
20119;BME280;10220;42.716;23.306;2024-02-04T06:54:04;95666.75;;;8.97;100.00
20119;BME280;10220;42.716;23.306;2024-02-04T06:56:30;95673.06;;;9.09;100.00
20119;BME280;10220;42.716;23.306;2024-02-04T06:58:55;95638.81;;;8.86;100.00
20119;BME280;10220;42.716;23.306;2024-02-04T07:01:21;95668.97;;;9.14;100.00
20119;BME280;10220;42.716;23.306;2024-02-04T07:03:46;95670.94;;;9.12;100.00
20119;BME280;10220;42.716;23.306;2024-02-04T07:06:12;95676.91;;;9.33;100.00
20119;BME280;10220;42.716;23.306;2024-02-04T07:08:37;95677.41;;;9.23;100.00
20119;BME280;10220;42.716;23.306;2024-02-04T07:11:03;95685.16;;;9.23;100.00
20119;BME280;10220;42.716;23.306;2024-02-04T07:13:30;95662.88;;;9.22;100.00
20119;BME280;10220;42.716;23.306;2024-02-04T07:15:56;95663.50;;;9.24;100.00
20119;BME280;10220;42.716;23.306;2024-02-04T07:18:23;95661.72;;;9.24;100.00
20119;BME280;10220;42.716;23.306;2024-02-04T07:20:48;95676.16;;;9.19;100.00
20119;BME280;10220;42.716;23.306;2024-02-04T07:23:14;95679.19;;;9.22;100.00
20119;BME280;10220;42.716;23.306;2024-02-04T07:25:39;95648.22;;;9.08;100.00
20119;BME280;10220;42.716;23.306;2024-02-04T07:28:05;95677.44;;;9.43;100.00
20119;BME280;10220;42.716;23.306;2024-02-04T07:30:30;95685.38;;;9.42;100.00
20119;BME280;10220;42.716;23.306;2024-02-04T07:32:56;95662.81;;;9.36;100.00
20119;BME280;10220;42.716;23.306;2024-02-04T07:35:22;95666.84;;;9.38;100.00
20119;BME280;10220;42.716;23.306;2024-02-04T07:37:47;95665.13;;;9.45;100.00
20119;BME280;10220;42.716;23.306;2024-02-04T07:40:13;95671.84;;;9.61;100.00
20119;BME280;10220;42.716;23.306;2024-02-04T07:42:38;95666.56;;;9.69;100.00
20119;BME280;10220;42.716;23.306;2024-02-04T07:45:04;95634.22;;;9.37;100.00
20119;BME280;10220;42.716;23.306;2024-02-04T07:47:34;95669.34;;;9.32;100.00
20119;BME280;10220;42.716;23.306;2024-02-04T07:50:00;95684.03;;;9.46;100.00
20119;BME280;10220;42.716;23.306;2024-02-04T07:52:25;95675.16;;;9.55;100.00
20119;BME280;10220;42.716;23.306;2024-02-04T07:54:51;95679.25;;;9.64;100.00
20119;BME280;10220;42.716;23.306;2024-02-04T07:57:16;95679.66;;;9.67;100.00
20119;BME280;10220;42.716;23.306;2024-02-04T07:59:45;95669.31;;;9.67;100.00
20119;BME280;10220;42.716;23.306;2024-02-04T08:02:27;95630.50;;;9.67;100.00
20119;BME280;10220;42.716;23.306;2024-02-04T08:04:52;95641.16;;;9.79;100.00
20119;BME280;10220;42.716;23.306;2024-02-04T08:07:21;95656.09;;;9.97;100.00
20119;BME280;10220;42.716;23.306;2024-02-04T08:09:46;95683.25;;;10.08;100.00
20119;BME280;10220;42.716;23.306;2024-02-04T08:12:22;95660.44;;;9.76;100.00
20119;BME280;10220;42.716;23.306;2024-02-04T08:14:50;95700.00;;;9.91;100.00
20119;BME280;10220;42.716;23.306;2024-02-04T08:17:15;95671.94;;;9.94;100.00
20119;BME280;10220;42.716;23.306;2024-02-04T08:19:41;95676.41;;;9.80;100.00
20119;BME280;10220;42.716;23.306;2024-02-04T08:22:06;95657.91;;;9.83;100.00
20119;BME280;10220;42.716;23.306;2024-02-04T08:24:33;95671.22;;;10.21;100.00
20119;BME280;10220;42.716;23.306;2024-02-04T08:26:58;95665.44;;;10.47;100.00
20119;BME280;10220;42.716;23.306;2024-02-04T08:29:25;95663.16;;;10.37;100.00
20119;BME280;10220;42.716;23.306;2024-02-04T08:31:52;95655.97;;;10.33;100.00
20119;BME280;10220;42.716;23.306;2024-02-04T08:34:18;95665.75;;;10.37;100.00
20119;BME280;10220;42.716;23.306;2024-02-04T08:36:45;95655.81;;;10.41;100.00
20119;BME280;10220;42.716;23.306;2024-02-04T08:39:11;95654.75;;;10.29;100.00
20119;BME280;10220;42.716;23.306;2024-02-04T08:41:36;95656.06;;;10.18;100.00
20119;BME280;10220;42.716;23.306;2024-02-04T08:44:02;95648.28;;;10.18;100.00
20119;BME280;10220;42.716;23.306;2024-02-04T08:46:27;95633.31;;;10.14;100.00
20119;BME280;10220;42.716;23.306;2024-02-04T08:48:53;95677.84;;;10.57;100.00
20119;BME280;10220;42.716;23.306;2024-02-04T08:51:18;95683.50;;;10.67;100.00
20119;BME280;10220;42.716;23.306;2024-02-04T08:53:44;95665.19;;;10.42;100.00
20119;BME280;10220;42.716;23.306;2024-02-04T08:56:10;95680.47;;;10.64;100.00
20119;BME280;10220;42.716;23.306;2024-02-04T08:58:36;95673.88;;;10.61;100.00
20119;BME280;10220;42.716;23.306;2024-02-04T09:01:05;95682.78;;;10.52;100.00
20119;BME280;10220;42.716;23.306;2024-02-04T09:03:30;95694.38;;;10.56;100.00
20119;BME280;10220;42.716;23.306;2024-02-04T09:05:57;95698.22;;;10.67;100.00
20119;BME280;10220;42.716;23.306;2024-02-04T09:08:22;95684.97;;;10.55;100.00
20119;BME280;10220;42.716;23.306;2024-02-04T09:10:48;95690.56;;;10.52;100.00
20119;BME280;10220;42.716;23.306;2024-02-04T09:13:14;95697.19;;;10.34;100.00
20119;BME280;10220;42.716;23.306;2024-02-04T09:15:39;95705.72;;;10.55;100.00
20119;BME280;10220;42.716;23.306;2024-02-04T09:18:05;95714.00;;;10.45;100.00
20119;BME280;10220;42.716;23.306;2024-02-04T09:20:30;95707.38;;;10.36;100.00
20119;BME280;10220;42.716;23.306;2024-02-04T09:22:56;95689.66;;;10.39;100.00
20119;BME280;10220;42.716;23.306;2024-02-04T09:25:21;95698.63;;;10.37;100.00
20119;BME280;10220;42.716;23.306;2024-02-04T09:27:47;95725.50;;;10.36;100.00
20119;BME280;10220;42.716;23.306;2024-02-04T09:30:12;95740.84;;;10.16;100.00
20119;BME280;10220;42.716;23.306;2024-02-04T09:32:38;95718.56;;;10.15;100.00
20119;BME280;10220;42.716;23.306;2024-02-04T09:35:04;95726.38;;;10.49;100.00
20119;BME280;10220;42.716;23.306;2024-02-04T09:37:29;95722.84;;;10.56;100.00
20119;BME280;10220;42.716;23.306;2024-02-04T09:39:58;95711.09;;;10.88;100.00
20119;BME280;10220;42.716;23.306;2024-02-04T09:42:23;95698.28;;;11.20;100.00
20119;BME280;10220;42.716;23.306;2024-02-04T09:44:50;95708.06;;;11.71;98.83
20119;BME280;10220;42.716;23.306;2024-02-04T09:47:15;95712.06;;;11.67;97.51
20119;BME280;10220;42.716;23.306;2024-02-04T09:49:42;95709.53;;;12.12;94.43
20119;BME280;10220;42.716;23.306;2024-02-04T09:52:08;95699.28;;;11.66;95.02
20119;BME280;10220;42.716;23.306;2024-02-04T09:54:38;95691.66;;;11.51;95.88
20119;BME280;10220;42.716;23.306;2024-02-04T09:57:08;95693.94;;;11.93;95.95
20119;BME280;10220;42.716;23.306;2024-02-04T09:59:34;95709.13;;;11.83;96.11
20119;BME280;10220;42.716;23.306;2024-02-04T10:02:01;95673.59;;;12.09;95.15
20119;BME280;10220;42.716;23.306;2024-02-04T10:04:28;95692.97;;;12.26;93.06
20119;BME280;10220;42.716;23.306;2024-02-04T10:06:53;95694.75;;;12.51;92.95
20119;BME280;10220;42.716;23.306;2024-02-04T10:09:19;95687.53;;;12.79;90.49
20119;BME280;10220;42.716;23.306;2024-02-04T10:11:45;95689.72;;;12.89;89.18
20119;BME280;10220;42.716;23.306;2024-02-04T10:14:11;95696.13;;;12.60;91.49
20119;BME280;10220;42.716;23.306;2024-02-04T10:16:37;95705.56;;;12.35;93.74
20119;BME280;10220;42.716;23.306;2024-02-04T10:19:02;95695.97;;;12.04;95.60
20119;BME280;10220;42.716;23.306;2024-02-04T10:21:28;95697.13;;;11.75;99.58
20119;BME280;10220;42.716;23.306;2024-02-04T10:23:54;95659.81;;;11.23;100.00
20119;BME280;10220;42.716;23.306;2024-02-04T10:26:22;95679.50;;;11.52;100.00
20119;BME280;10220;42.716;23.306;2024-02-04T10:28:48;95693.22;;;11.46;100.00
20119;BME280;10220;42.716;23.306;2024-02-04T10:31:14;95684.63;;;11.39;100.00
20119;BME280;10220;42.716;23.306;2024-02-04T10:33:40;95681.56;;;11.22;100.00
20119;BME280;10220;42.716;23.306;2024-02-04T10:36:06;95682.16;;;11.18;100.00
20119;BME280;10220;42.716;23.306;2024-02-04T10:38:32;95683.72;;;11.19;100.00
20119;BME280;10220;42.716;23.306;2024-02-04T10:41:00;95670.09;;;10.98;100.00
20119;BME280;10220;42.716;23.306;2024-02-04T10:43:31;95685.88;;;11.03;100.00
20119;BME280;10220;42.716;23.306;2024-02-04T10:46:09;95687.25;;;10.99;100.00
20119;BME280;10220;42.716;23.306;2024-02-04T10:48:37;95691.69;;;11.17;100.00
20119;BME280;10220;42.716;23.306;2024-02-04T10:51:17;95696.88;;;11.17;100.00
20119;BME280;10220;42.716;23.306;2024-02-04T10:53:45;95678.44;;;11.00;100.00
20119;BME280;10220;42.716;23.306;2024-02-04T10:58:42;95688.09;;;11.12;100.00
20119;BME280;10220;42.716;23.306;2024-02-04T11:01:10;95690.84;;;11.04;100.00
20119;BME280;10220;42.716;23.306;2024-02-04T11:03:40;95684.84;;;11.04;100.00
20119;BME280;10220;42.716;23.306;2024-02-04T11:06:08;95674.03;;;10.87;100.00
20119;BME280;10220;42.716;23.306;2024-02-04T11:08:35;95690.44;;;11.01;100.00
20119;BME280;10220;42.716;23.306;2024-02-04T11:11:01;95691.47;;;11.12;100.00
20119;BME280;10220;42.716;23.306;2024-02-04T11:13:28;95682.28;;;11.10;100.00
20119;BME280;10220;42.716;23.306;2024-02-04T11:15:57;95691.66;;;11.11;100.00
20119;BME280;10220;42.716;23.306;2024-02-04T11:26:45;95675.56;;;11.15;100.00
20119;BME280;10220;42.716;23.306;2024-02-04T11:29:11;95665.94;;;11.10;100.00
20119;BME280;10220;42.716;23.306;2024-02-04T11:31:39;95669.94;;;11.12;100.00
20119;BME280;10220;42.716;23.306;2024-02-04T11:34:08;95651.78;;;11.12;100.00
20119;BME280;10220;42.716;23.306;2024-02-04T11:36:40;95664.78;;;11.18;100.00
20119;BME280;10220;42.716;23.306;2024-02-04T11:39:17;95658.41;;;11.21;100.00
20119;BME280;10220;42.716;23.306;2024-02-04T11:41:47;95652.38;;;11.14;100.00
20119;BME280;10220;42.716;23.306;2024-02-04T11:44:19;95657.66;;;11.40;100.00
20119;BME280;10220;42.716;23.306;2024-02-04T11:46:48;95638.69;;;11.26;100.00
20119;BME280;10220;42.716;23.306;2024-02-04T11:49:27;95632.91;;;11.24;100.00
20119;BME280;10220;42.716;23.306;2024-02-04T11:51:52;95610.38;;;11.38;100.00
20119;BME280;10220;42.716;23.306;2024-02-04T11:54:25;95635.41;;;12.10;100.00
20119;BME280;10220;42.716;23.306;2024-02-04T11:56:52;95620.81;;;12.41;97.32
20119;BME280;10220;42.716;23.306;2024-02-04T11:59:19;95603.47;;;12.16;95.52
20119;BME280;10220;42.716;23.306;2024-02-04T12:01:47;95612.06;;;11.97;96.45
20119;BME280;10220;42.716;23.306;2024-02-04T12:04:15;95585.50;;;11.82;97.63
20119;BME280;10220;42.716;23.306;2024-02-04T12:06:41;95593.66;;;12.11;95.92
20119;BME280;10220;42.716;23.306;2024-02-04T12:09:10;95597.06;;;12.25;95.53
20119;BME280;10220;42.716;23.306;2024-02-04T12:11:37;95599.47;;;12.26;95.68
20119;BME280;10220;42.716;23.306;2024-02-04T12:14:07;95604.66;;;12.20;93.18
20119;BME280;10220;42.716;23.306;2024-02-04T12:16:36;95594.09;;;12.02;92.67
20119;BME280;10220;42.716;23.306;2024-02-04T12:19:02;95604.66;;;12.20;92.33
20119;BME280;10220;42.716;23.306;2024-02-04T12:21:32;95595.25;;;12.19;93.14
20119;BME280;10220;42.716;23.306;2024-02-04T12:23:58;95593.66;;;12.11;93.21
20119;BME280;10220;42.716;23.306;2024-02-04T12:26:25;95596.25;;;12.11;93.96
20119;BME280;10220;42.716;23.306;2024-02-04T12:28:50;95596.25;;;12.11;93.55
20119;BME280;10220;42.716;23.306;2024-02-04T12:31:17;95582.66;;;12.29;93.06
20119;BME280;10220;42.716;23.306;2024-02-04T12:33:56;95583.41;;;12.55;90.45
20119;BME280;10220;42.716;23.306;2024-02-04T12:36:26;95560.94;;;12.73;86.91
20119;BME280;10220;42.716;23.306;2024-02-04T12:42:27;95521.22;;;12.60;85.80
20119;BME280;10220;42.716;23.306;2024-02-04T12:45:00;95531.25;;;12.43;87.81
20119;BME280;10220;42.716;23.306;2024-02-04T12:57:39;95561.44;;;12.44;90.87
20119;BME280;10220;42.716;23.306;2024-02-04T13:07:01;95574.66;;;12.36;92.98
20119;BME280;10220;42.716;23.306;2024-02-04T13:09:26;95574.88;;;12.35;92.00
20119;BME280;10220;42.716;23.306;2024-02-04T13:11:51;95568.81;;;12.47;91.61
20119;BME280;10220;42.716;23.306;2024-02-04T13:14:17;95588.41;;;12.50;91.44
20119;BME280;10220;42.716;23.306;2024-02-04T13:16:42;95587.22;;;12.39;92.07
20119;BME280;10220;42.716;23.306;2024-02-04T13:19:08;95583.28;;;12.05;91.71
20119;BME280;10220;42.716;23.306;2024-02-04T13:21:33;95561.53;;;11.93;93.15
20119;BME280;10220;42.716;23.306;2024-02-04T13:23:59;95606.06;;;12.29;92.45
20119;BME280;10220;42.716;23.306;2024-02-04T13:26:25;95610.63;;;12.33;91.40
20119;BME280;10220;42.716;23.306;2024-02-04T13:28:50;95607.00;;;12.53;91.79
20119;BME280;10220;42.716;23.306;2024-02-04T13:31:16;95616.63;;;12.33;92.29
20119;BME280;10220;42.716;23.306;2024-02-04T13:33:41;95617.22;;;12.42;91.93
20119;BME280;10220;42.716;23.306;2024-02-04T13:36:07;95609.97;;;12.57;91.61